createdAt,value
2023-01-19T00:00:47.600Z,17.15
2023-01-19T00:02:51.143Z,17.52
2023-01-19T00:04:53.958Z,17.85
2023-01-19T00:06:56.937Z,19.73
2023-01-19T00:09:00.168Z,18.90
2023-01-19T00:11:03.269Z,18.08
2023-01-19T00:13:06.167Z,19.38
2023-01-19T00:15:10.295Z,19.63
2023-01-19T00:17:14.651Z,18.77
2023-01-19T00:19:17.730Z,19.75
2023-01-19T00:21:22.052Z,20.42
2023-01-19T00:23:26.288Z,20.75
2023-01-19T00:25:29.287Z,19.55
2023-01-19T00:27:35.207Z,19.33
2023-01-19T00:29:38.085Z,18.65
2023-01-19T00:31:41.182Z,19.60
2023-01-19T00:33:49.190Z,18.55
2023-01-19T00:35:53.259Z,18.25
2023-01-19T00:37:56.889Z,19.00
2023-01-19T00:39:59.848Z,18.13
2023-01-19T00:42:21.248Z,19.23
2023-01-19T00:44:24.158Z,19.25
2023-01-19T00:46:27.529Z,18.05
2023-01-19T00:48:31.086Z,17.05
2023-01-19T00:50:35.655Z,18.58
2023-01-19T00:52:39.092Z,19.05
2023-01-19T00:54:41.887Z,18.58
2023-01-19T00:56:44.769Z,17.27
2023-01-19T00:58:47.689Z,17.95
2023-01-19T01:00:50.652Z,17.50
2023-01-19T01:02:54.147Z,18.13
2023-01-19T01:04:57.136Z,18.95
2023-01-19T01:07:01.550Z,18.33
2023-01-19T01:09:12.229Z,19.40
2023-01-19T01:11:15.128Z,19.73
2023-01-19T01:13:21.937Z,19.52
2023-01-19T01:15:27.050Z,20.13
2023-01-19T01:17:30.048Z,19.98
2023-01-19T01:19:32.904Z,20.38
2023-01-19T01:21:36.040Z,22.50
2023-01-19T01:23:40.392Z,19.73
2023-01-19T01:25:43.768Z,20.25
2023-01-19T01:27:46.674Z,22.13
2023-01-19T01:29:49.627Z,25.15
2023-01-19T01:31:52.609Z,26.42
2023-01-19T01:33:55.689Z,26.02
2023-01-19T01:35:59.109Z,28.08
2023-01-19T01:38:02.120Z,26.30
2023-01-19T01:40:07.843Z,26.88
2023-01-19T01:42:17.891Z,26.20
2023-01-19T01:44:50.217Z,25.95
2023-01-19T01:46:53.270Z,25.33
2023-01-19T01:48:59.593Z,25.02
2023-01-19T01:51:23.688Z,25.52
2023-01-19T01:53:27.288Z,26.20
2023-01-19T01:55:32.167Z,25.08
2023-01-19T01:57:37.563Z,26.00
2023-01-19T01:59:42.970Z,27.48
2023-01-19T02:02:04.475Z,26.35
2023-01-19T02:04:07.940Z,25.17
2023-01-19T02:06:10.968Z,26.60
2023-01-19T02:08:34.653Z,27.52
2023-01-19T02:10:58.507Z,28.23
2023-01-19T02:13:20.067Z,26.83
2023-01-19T02:15:23.055Z,26.33
2023-01-19T02:17:26.128Z,27.33
2023-01-19T02:19:34.258Z,27.42
2023-01-19T02:21:43.213Z,26.77
2023-01-19T02:23:49.729Z,25.20
2023-01-19T02:25:53.890Z,27.05
2023-01-19T02:27:57.417Z,26.45
2023-01-19T02:30:03.926Z,27.02
2023-01-19T02:32:07.489Z,26.38
2023-01-19T02:34:11.929Z,25.15
2023-01-19T02:36:16.295Z,23.08
2023-01-19T02:38:20.197Z,23.92
2023-01-19T02:40:25.338Z,22.42
2023-01-19T02:42:30.410Z,22.35
2023-01-19T02:44:34.530Z,22.13
2023-01-19T02:46:37.749Z,22.23
2023-01-19T02:48:40.702Z,21.90
2023-01-19T02:50:50.082Z,20.95
2023-01-19T02:52:54.049Z,22.25
2023-01-19T02:55:05.157Z,21.90
2023-01-19T02:57:25.220Z,23.13
2023-01-19T02:59:39.013Z,20.70
2023-01-19T03:02:11.586Z,21.20
2023-01-19T03:04:22.259Z,21.92
2023-01-19T03:06:33.491Z,20.45
2023-01-19T03:08:44.688Z,20.88
2023-01-19T03:10:54.251Z,20.98
2023-01-19T03:13:03.875Z,20.35
2023-01-19T03:15:14.458Z,20.17
2023-01-19T03:17:19.489Z,20.20
2023-01-19T03:19:24.530Z,19.58
2023-01-19T03:21:28.410Z,19.88
2023-01-19T03:23:32.818Z,18.35
2023-01-19T03:25:38.358Z,20.27
2023-01-19T03:27:43.007Z,18.60
2023-01-19T03:29:51.155Z,19.38
2023-01-19T03:31:54.878Z,18.88
2023-01-19T03:34:00.318Z,18.83
2023-01-19T03:36:06.496Z,19.63
2023-01-19T03:38:16.339Z,19.15
2023-01-19T03:40:19.477Z,20.00
2023-01-19T03:42:23.568Z,19.23
2023-01-19T03:44:28.514Z,19.23
2023-01-19T03:46:33.690Z,20.25
2023-01-19T03:48:36.659Z,19.30
2023-01-19T03:50:39.789Z,19.65
2023-01-19T03:52:42.767Z,20.20
2023-01-19T03:54:45.808Z,19.50
2023-01-19T03:56:48.587Z,18.52
2023-01-19T03:58:52.099Z,20.40
2023-01-19T04:00:55.139Z,21.08
2023-01-19T04:02:59.960Z,21.00
2023-01-19T04:05:03.087Z,20.98
2023-01-19T04:07:06.067Z,19.85
2023-01-19T04:09:09.073Z,20.95
2023-01-19T04:11:12.647Z,19.77
2023-01-19T04:13:15.488Z,21.67
2023-01-19T04:15:18.927Z,21.73
2023-01-19T04:17:21.752Z,20.30
2023-01-19T04:19:26.376Z,22.25
2023-01-19T04:21:29.208Z,20.73
2023-01-19T04:23:32.300Z,21.25
2023-01-19T04:25:35.952Z,21.90
2023-01-19T04:27:40.207Z,23.50
2023-01-19T04:29:43.128Z,26.23
2023-01-19T04:31:46.089Z,26.98
2023-01-19T04:33:49.166Z,28.50
2023-01-19T04:35:54.575Z,25.70
2023-01-19T04:37:57.607Z,22.30
2023-01-19T04:40:00.501Z,18.65
2023-01-19T04:42:03.486Z,22.95
2023-01-19T04:44:06.567Z,27.50
2023-01-19T04:46:09.460Z,27.70
2023-01-19T04:48:12.690Z,26.55
2023-01-19T04:50:15.588Z,26.73
2023-01-19T04:52:20.139Z,26.25
2023-01-19T04:54:23.496Z,27.23
2023-01-19T04:56:26.384Z,27.05
2023-01-19T04:58:29.190Z,26.45
2023-01-19T05:00:32.173Z,29.25
2023-01-19T05:02:35.326Z,32.58
2023-01-19T05:04:38.166Z,34.83
2023-01-19T05:06:41.015Z,36.88
2023-01-19T05:08:45.605Z,42.30
2023-01-19T05:10:49.297Z,51.38
2023-01-19T05:12:52.292Z,49.33
2023-01-19T05:14:55.109Z,48.58
2023-01-19T05:16:58.232Z,49.85
2023-01-19T05:19:01.121Z,49.80
2023-01-19T05:21:04.402Z,46.78
2023-01-19T05:23:07.249Z,45.83
2023-01-19T05:25:11.811Z,38.42
2023-01-19T05:27:14.721Z,34.17
2023-01-19T05:29:17.770Z,36.53
2023-01-19T05:31:20.914Z,37.08
2023-01-19T05:33:24.248Z,36.58
2023-01-19T05:35:35.730Z,36.00
2023-01-19T05:37:39.368Z,32.90
2023-01-19T05:39:42.212Z,30.95
2023-01-19T05:41:46.636Z,32.97
2023-01-19T05:43:49.549Z,31.55
2023-01-19T05:45:52.632Z,30.85
2023-01-19T05:47:56.165Z,30.38
2023-01-19T05:49:59.196Z,30.35
2023-01-19T05:52:02.350Z,32.83
2023-01-19T05:54:05.578Z,31.95
2023-01-19T05:56:09.767Z,28.45
2023-01-19T05:58:14.183Z,30.50
2023-01-19T06:00:17.620Z,27.20
2023-01-19T06:02:20.709Z,26.42
2023-01-19T06:04:23.756Z,25.90
2023-01-19T06:06:26.718Z,27.60
2023-01-19T06:08:30.127Z,25.38
2023-01-19T06:10:33.194Z,29.17
2023-01-19T06:12:36.068Z,27.08
2023-01-19T06:14:41.228Z,28.15
2023-01-19T06:16:44.207Z,26.63
2023-01-19T06:18:47.289Z,27.02
2023-01-19T06:20:50.128Z,24.88
2023-01-19T06:22:53.053Z,24.75
2023-01-19T06:24:56.011Z,19.52
2023-01-19T06:26:58.917Z,20.27
2023-01-19T06:29:01.757Z,21.55
2023-01-19T06:31:06.695Z,21.85
2023-01-19T06:33:09.649Z,21.40
2023-01-19T06:35:12.941Z,20.55
2023-01-19T06:37:18.610Z,24.50
2023-01-19T06:41:24.088Z,25.50
2023-01-19T06:43:27.343Z,29.48
2023-01-19T06:45:30.237Z,26.60
2023-01-19T06:47:34.889Z,22.00
2023-01-19T06:49:37.748Z,24.67
2023-01-19T06:51:40.671Z,20.35
2023-01-19T06:53:43.609Z,18.88
2023-01-19T06:55:46.539Z,17.90
2023-01-19T06:57:49.497Z,17.75
2023-01-19T06:59:53.305Z,20.08
2023-01-19T07:01:59.425Z,16.95
2023-01-19T07:04:03.890Z,17.05
2023-01-19T07:06:07.721Z,16.92
2023-01-19T07:08:10.689Z,15.30
2023-01-19T07:10:16.010Z,14.15
2023-01-19T07:12:18.968Z,14.50
2023-01-19T07:14:21.907Z,14.90
2023-01-19T07:16:25.170Z,13.45
2023-01-19T07:18:28.041Z,13.52
2023-01-19T07:20:32.787Z,13.27
2023-01-19T07:22:35.737Z,11.73
2023-01-19T07:24:38.768Z,13.77
2023-01-19T07:26:41.588Z,14.00
2023-01-19T07:28:45.815Z,12.52
2023-01-19T07:30:52.005Z,12.38
2023-01-19T07:32:56.609Z,12.10
2023-01-19T07:34:59.537Z,11.75
2023-01-19T07:37:04.768Z,12.43
2023-01-19T07:39:07.688Z,12.02
2023-01-19T07:41:11.367Z,11.23
2023-01-19T07:43:14.692Z,12.40
2023-01-19T07:45:18.128Z,13.35
2023-01-19T07:47:21.231Z,13.88
2023-01-19T07:49:24.138Z,15.63
2023-01-19T07:51:28.242Z,14.45
2023-01-19T07:53:33.096Z,15.43
2023-01-19T07:55:36.601Z,17.17
2023-01-19T07:57:39.497Z,17.67
2023-01-19T07:59:42.408Z,14.20
2023-01-19T08:01:45.648Z,15.55
2023-01-19T08:03:49.211Z,16.35
2023-01-19T08:05:52.771Z,16.33
2023-01-19T08:07:57.838Z,15.48
2023-01-19T08:10:02.258Z,16.27
2023-01-19T08:12:05.668Z,15.43
2023-01-19T08:14:09.370Z,16.70
2023-01-19T08:16:12.288Z,16.65
2023-01-19T08:18:16.151Z,17.55
2023-01-19T08:20:19.396Z,18.75
2023-01-19T08:22:22.567Z,18.15
2023-01-19T08:24:28.918Z,17.42
2023-01-19T08:26:34.768Z,16.85
2023-01-19T08:28:37.598Z,16.90
2023-01-19T08:30:41.124Z,17.02
2023-01-19T08:32:44.116Z,18.33
2023-01-19T08:34:47.128Z,15.98
2023-01-19T08:36:50.048Z,16.63
2023-01-19T08:38:53.306Z,17.20
2023-01-19T08:40:56.176Z,16.75
2023-01-19T08:43:08.136Z,15.07
2023-01-19T08:45:11.669Z,14.40
2023-01-19T08:47:14.654Z,13.82
2023-01-19T08:49:17.631Z,13.65
2023-01-19T08:51:20.608Z,13.65
2023-01-19T08:53:24.008Z,13.43
2023-01-19T08:55:27.327Z,13.90
2023-01-19T08:57:30.128Z,13.70
2023-01-19T08:59:34.537Z,14.10
2023-01-19T09:01:37.747Z,12.85
2023-01-19T09:03:41.007Z,12.68
2023-01-19T09:05:43.844Z,12.43
2023-01-19T09:07:50.378Z,11.80
2023-01-19T09:09:53.265Z,12.57
2023-01-19T09:11:56.169Z,12.20
2023-01-19T09:13:59.096Z,11.52
2023-01-19T09:16:05.322Z,12.50
2023-01-19T09:18:13.996Z,11.48
2023-01-19T09:20:17.187Z,11.23
2023-01-19T09:22:20.331Z,13.00
2023-01-19T09:24:23.488Z,12.68
2023-01-19T09:26:26.668Z,12.07
2023-01-19T09:28:30.209Z,11.63
2023-01-19T09:30:33.585Z,11.20
2023-01-19T09:32:38.048Z,12.68
2023-01-19T09:34:40.958Z,12.20
2023-01-19T09:36:43.888Z,11.52
2023-01-19T09:38:46.817Z,12.00
2023-01-19T09:40:51.048Z,12.30
2023-01-19T09:42:57.336Z,11.73
2023-01-19T09:45:01.375Z,11.48
2023-01-19T09:47:04.811Z,12.90
2023-01-19T09:49:13.989Z,11.70
2023-01-19T09:51:20.247Z,12.13
2023-01-19T09:53:28.528Z,11.70
2023-01-19T09:55:31.629Z,9.77
2023-01-19T09:57:35.409Z,11.95
2023-01-19T09:59:39.248Z,12.38
2023-01-19T10:01:50.444Z,12.43
2023-01-19T10:04:06.300Z,13.07
2023-01-19T10:06:12.648Z,13.55
2023-01-19T10:08:20.586Z,14.07
2023-01-19T10:10:26.061Z,13.90
2023-01-19T10:12:37.572Z,14.73
2023-01-19T10:14:45.613Z,13.75
2023-01-19T10:16:53.302Z,14.40
2023-01-19T10:18:59.888Z,14.00
2023-01-19T10:21:06.721Z,14.55
2023-01-19T10:23:23.055Z,14.48
2023-01-19T10:25:26.370Z,14.15
2023-01-19T10:27:31.009Z,14.40
2023-01-19T10:29:36.735Z,14.85
2023-01-19T10:31:41.145Z,15.48
2023-01-19T10:33:44.188Z,15.60
2023-01-19T10:35:49.091Z,15.27
2023-01-19T10:37:53.519Z,15.13
2023-01-19T10:40:00.093Z,15.77
2023-01-19T10:42:03.211Z,15.23
2023-01-19T10:44:06.607Z,15.23
2023-01-19T10:46:27.410Z,14.75
2023-01-19T10:48:38.031Z,15.38
2023-01-19T10:50:41.045Z,14.90
2023-01-19T10:52:45.131Z,16.13
2023-01-19T10:54:50.744Z,14.98
2023-01-19T10:56:57.670Z,15.63
2023-01-19T10:59:02.176Z,15.20
2023-01-19T11:01:15.234Z,15.48
2023-01-19T11:03:23.455Z,15.38
2023-01-19T11:05:27.909Z,17.23
2023-01-19T11:07:33.342Z,16.67
2023-01-19T11:11:44.127Z,17.65
2023-01-19T11:14:04.248Z,16.42
2023-01-19T11:16:11.576Z,13.80
2023-01-19T11:18:24.739Z,14.25
2023-01-19T11:20:30.212Z,14.65
2023-01-19T11:22:33.887Z,15.10
2023-01-19T11:24:38.646Z,13.02
2023-01-19T11:26:43.451Z,17.95
2023-01-19T11:28:49.449Z,17.57
2023-01-19T11:30:57.031Z,16.02
2023-01-19T11:33:00.332Z,17.13
2023-01-19T11:35:05.160Z,16.35
2023-01-19T11:37:27.547Z,15.80
2023-01-19T11:39:31.281Z,16.25
2023-01-19T11:41:35.168Z,15.23
2023-01-19T11:43:48.653Z,14.75
2023-01-19T11:45:55.560Z,15.40
2023-01-19T11:47:58.606Z,15.88
2023-01-19T11:50:05.586Z,15.98
2023-01-19T11:52:16.760Z,15.48
2023-01-19T11:54:23.965Z,15.40
2023-01-19T11:56:29.347Z,14.43
2023-01-19T11:58:33.806Z,14.93
2023-01-19T12:00:39.291Z,13.88
2023-01-19T12:02:45.408Z,15.35
2023-01-19T12:04:49.235Z,13.82
2023-01-19T12:06:55.150Z,14.60
2023-01-19T12:09:00.807Z,14.88
2023-01-19T12:13:06.377Z,12.48
2023-01-19T12:15:17.738Z,13.73
2023-01-19T12:17:29.968Z,15.45
2023-01-19T12:19:42.608Z,14.35
2023-01-19T12:21:48.798Z,12.38
2023-01-19T12:24:01.639Z,12.02
2023-01-19T12:26:28.195Z,13.43
2023-01-19T12:28:33.018Z,12.48
2023-01-19T12:30:36.910Z,14.05
2023-01-19T12:32:39.890Z,13.60
2023-01-19T12:34:46.924Z,14.07
2023-01-19T12:36:50.747Z,13.75
2023-01-19T12:38:55.105Z,14.02
2023-01-19T12:41:19.568Z,12.35
2023-01-19T12:43:22.608Z,13.45
2023-01-19T12:45:29.148Z,12.88
2023-01-19T12:47:32.196Z,13.25
2023-01-19T12:49:41.244Z,13.38
2023-01-19T12:51:46.291Z,14.20
2023-01-19T12:53:52.812Z,13.30
2023-01-19T12:56:00.348Z,14.32
2023-01-19T12:58:04.759Z,12.43
2023-01-19T13:00:30.141Z,13.90
2023-01-19T13:02:51.363Z,14.45
2023-01-19T13:05:49.767Z,11.25
2023-01-19T13:10:50.977Z,13.32
2023-01-19T13:13:18.931Z,13.80
2023-01-19T13:15:36.141Z,13.20
2023-01-19T13:17:49.929Z,12.07
2023-01-19T13:20:23.022Z,12.23
2023-01-19T13:22:50.631Z,13.23
2023-01-19T13:25:07.532Z,13.00
2023-01-19T13:27:12.680Z,14.93
2023-01-19T13:29:21.157Z,14.07
2023-01-19T13:31:25.069Z,14.13
2023-01-19T13:33:30.207Z,14.10
2023-01-19T13:35:33.413Z,14.27
2023-01-19T13:37:39.569Z,14.27
2023-01-19T13:39:44.747Z,14.18
2023-01-19T13:41:48.278Z,13.38
2023-01-19T13:43:57.567Z,15.07
2023-01-19T13:46:02.267Z,14.65
2023-01-19T13:48:07.179Z,14.63
2023-01-19T13:50:19.888Z,14.63
2023-01-19T13:52:24.328Z,14.95
2023-01-19T13:54:27.207Z,13.75
2023-01-19T13:56:30.628Z,15.10
2023-01-19T13:58:33.599Z,14.27
2023-01-19T14:00:36.479Z,14.35
2023-01-19T14:02:41.100Z,14.20
2023-01-19T14:04:44.099Z,13.63
2023-01-19T14:06:49.619Z,13.57
2023-01-19T14:09:10.959Z,14.60
2023-01-19T14:11:14.611Z,12.50
2023-01-19T14:13:20.080Z,11.80
2023-01-19T14:15:22.935Z,12.48
2023-01-19T14:17:28.147Z,11.90
2023-01-19T14:19:48.180Z,11.80
2023-01-19T14:22:02.560Z,12.32
2023-01-19T14:24:10.603Z,13.13
2023-01-19T14:26:46.825Z,12.80
2023-01-19T14:28:49.819Z,13.48
2023-01-19T14:30:56.759Z,14.77
2023-01-19T14:32:59.787Z,16.05
2023-01-19T14:35:24.581Z,17.98
2023-01-19T14:37:28.869Z,17.48
2023-01-19T14:39:33.425Z,15.90
2023-01-19T14:41:38.806Z,16.30
2023-01-19T14:43:44.447Z,13.40
2023-01-19T14:45:48.325Z,15.07
2023-01-19T14:47:56.104Z,13.98
2023-01-19T14:50:05.216Z,14.13
2023-01-19T14:52:20.489Z,12.95
2023-01-19T14:54:29.839Z,13.38
2023-01-19T14:56:34.367Z,13.27
2023-01-19T14:58:37.399Z,13.00
2023-01-19T15:00:40.494Z,14.23
2023-01-19T15:02:43.756Z,13.50
2023-01-19T15:04:48.288Z,13.60
2023-01-19T15:06:51.367Z,13.68
2023-01-19T15:08:56.163Z,14.20
2023-01-19T15:10:59.331Z,17.92
2023-01-19T15:13:02.217Z,19.20
2023-01-19T15:15:06.830Z,21.05
2023-01-19T15:17:16.447Z,23.65
2023-01-19T15:19:19.467Z,23.48
2023-01-19T15:21:29.224Z,23.33
2023-01-19T15:23:32.814Z,24.52
2023-01-19T15:25:39.720Z,25.33
2023-01-19T15:27:43.393Z,25.48
2023-01-19T15:29:46.646Z,27.67
2023-01-19T15:31:50.087Z,25.98
2023-01-19T15:34:10.817Z,28.65
2023-01-19T15:38:18.711Z,29.48
2023-01-19T15:40:23.552Z,31.40
2023-01-19T15:42:27.868Z,30.80
2023-01-19T15:44:31.188Z,34.03
2023-01-19T15:46:34.287Z,34.25
2023-01-19T15:48:37.193Z,39.40
2023-01-19T15:50:41.349Z,36.13
2023-01-19T15:52:44.289Z,40.47
2023-01-19T15:54:47.382Z,40.95
2023-01-19T15:56:51.247Z,42.42
2023-01-19T15:58:56.077Z,42.35
2023-01-19T16:00:59.543Z,40.30
2023-01-19T16:03:03.531Z,38.63
2023-01-19T16:05:07.728Z,35.88
2023-01-19T16:07:10.904Z,32.53
2023-01-19T16:09:18.735Z,34.30
2023-01-19T16:11:21.614Z,32.08
2023-01-19T16:13:25.255Z,29.48
2023-01-19T16:15:29.687Z,26.48
2023-01-19T16:17:32.537Z,26.02
2023-01-19T16:19:35.337Z,25.40
2023-01-19T16:21:38.588Z,24.08
2023-01-19T16:23:41.424Z,24.25
2023-01-19T16:25:44.676Z,24.60
2023-01-19T16:27:47.767Z,24.00
2023-01-19T16:29:50.768Z,23.35
2023-01-19T16:31:55.481Z,24.15
2023-01-19T16:33:58.520Z,22.63
2023-01-19T16:36:18.359Z,25.05
2023-01-19T16:38:22.848Z,25.75
2023-01-19T16:40:26.980Z,25.98
2023-01-19T16:42:29.971Z,27.38
2023-01-19T16:44:32.997Z,27.88
2023-01-19T16:46:36.865Z,27.10
2023-01-19T16:48:41.228Z,26.73
2023-01-19T16:50:44.178Z,26.08
2023-01-19T16:52:47.039Z,25.35
2023-01-19T16:54:50.278Z,22.55
2023-01-19T16:56:54.058Z,24.40
2023-01-19T16:58:58.128Z,27.85
2023-01-19T17:01:01.085Z,25.67
2023-01-19T17:03:04.065Z,27.50
2023-01-19T17:05:09.662Z,23.30
2023-01-19T17:07:12.768Z,21.42
2023-01-19T17:09:15.656Z,20.27
2023-01-19T17:11:23.117Z,19.27
2023-01-19T17:13:25.966Z,19.23
2023-01-19T17:15:28.907Z,19.95
2023-01-19T17:17:31.808Z,19.63
2023-01-19T17:19:34.707Z,22.50
2023-01-19T17:21:39.087Z,23.77
2023-01-19T17:23:43.647Z,23.55
2023-01-19T17:25:52.987Z,24.65
2023-01-19T17:27:56.212Z,24.17
2023-01-19T17:29:59.059Z,23.38
2023-01-19T17:32:01.961Z,26.83
2023-01-19T17:34:05.211Z,32.85
2023-01-19T17:36:10.415Z,32.60
2023-01-19T17:38:14.667Z,39.17
2023-01-19T17:40:18.007Z,36.13
2023-01-19T17:42:21.200Z,42.25
2023-01-19T17:44:24.183Z,57.70
2023-01-19T17:46:28.829Z,55.75
2023-01-19T17:48:31.724Z,54.13
2023-01-19T17:50:37.693Z,49.53
2023-01-19T17:52:40.688Z,37.22
2023-01-19T17:54:45.007Z,42.55
2023-01-19T17:56:48.128Z,37.13
2023-01-19T17:58:51.247Z,40.42
2023-01-19T18:00:54.198Z,40.00
2023-01-19T18:02:57.215Z,38.78
2023-01-19T18:05:02.693Z,39.42
2023-01-19T18:07:05.640Z,38.80
2023-01-19T18:09:08.840Z,47.58
2023-01-19T18:11:13.908Z,52.15
2023-01-19T18:13:16.908Z,48.75
2023-01-19T18:15:19.920Z,51.40
2023-01-19T18:17:22.878Z,56.10
2023-01-19T18:19:25.777Z,59.25
2023-01-19T18:21:29.157Z,56.50
2023-01-19T18:23:32.375Z,52.97
2023-01-19T18:25:35.411Z,50.03
2023-01-19T18:27:39.768Z,48.45
2023-01-19T18:29:42.978Z,48.00
2023-01-19T18:31:45.766Z,45.42
2023-01-19T18:33:48.847Z,42.20
2023-01-19T18:35:51.665Z,39.28
2023-01-19T18:37:55.255Z,37.40
2023-01-19T18:40:02.419Z,38.65
2023-01-19T18:42:05.317Z,43.15
2023-01-19T18:44:09.894Z,44.72
2023-01-19T18:46:12.975Z,53.07
2023-01-19T18:48:17.949Z,51.58
2023-01-19T18:50:20.925Z,50.47
2023-01-19T18:52:23.767Z,53.58
2023-01-19T18:54:26.795Z,49.83
2023-01-19T18:56:29.639Z,48.10
2023-01-19T18:58:33.586Z,42.28
2023-01-19T19:00:38.059Z,43.55
2023-01-19T19:02:40.937Z,42.92
2023-01-19T19:04:43.912Z,46.35
2023-01-19T19:06:46.849Z,42.88
2023-01-19T19:08:50.567Z,41.83
2023-01-19T19:10:53.507Z,41.65
2023-01-19T19:12:56.415Z,41.53
2023-01-19T19:14:59.386Z,41.88
2023-01-19T19:17:03.705Z,38.05
2023-01-19T19:19:07.538Z,36.83
2023-01-19T19:21:11.299Z,35.47
2023-01-19T19:23:14.268Z,36.80
2023-01-19T19:25:17.307Z,35.80
2023-01-19T19:27:20.287Z,37.55
2023-01-19T19:29:23.325Z,38.35
2023-01-19T19:31:27.896Z,36.78
2023-01-19T19:33:35.484Z,34.83
2023-01-19T19:35:38.819Z,33.75
2023-01-19T19:37:41.767Z,35.33
2023-01-19T19:39:44.717Z,41.25
2023-01-19T19:41:47.517Z,44.40
2023-01-19T19:43:50.739Z,42.65
2023-01-19T19:45:58.376Z,41.50
2023-01-19T19:48:01.331Z,40.40
2023-01-19T19:50:06.269Z,39.30
2023-01-19T19:52:09.269Z,44.38
2023-01-19T19:54:12.148Z,43.60
2023-01-19T19:56:15.088Z,47.22
2023-01-19T19:58:17.887Z,49.80
2023-01-19T20:00:21.659Z,50.88
2023-01-19T20:02:24.549Z,47.47
2023-01-19T20:04:27.520Z,42.65
2023-01-19T20:06:37.668Z,37.67
2023-01-19T20:08:40.992Z,34.35
2023-01-19T20:10:43.927Z,28.60
2023-01-19T20:12:46.797Z,26.42
2023-01-19T20:14:49.700Z,24.73
2023-01-19T20:16:53.121Z,25.10
2023-01-19T20:18:55.949Z,24.20
2023-01-19T20:21:00.149Z,25.13
2023-01-19T20:23:04.768Z,26.00
2023-01-19T20:25:08.456Z,28.52
2023-01-19T20:27:11.330Z,29.90
2023-01-19T20:29:14.367Z,32.17
2023-01-19T20:31:19.501Z,33.33
2023-01-19T20:33:22.669Z,35.90
2023-01-19T20:35:25.720Z,36.88
2023-01-19T20:37:28.688Z,33.65
2023-01-19T20:39:35.534Z,34.85
2023-01-19T20:41:43.768Z,35.80
2023-01-19T20:43:46.860Z,34.20
2023-01-19T20:45:49.882Z,36.38
2023-01-19T20:47:53.598Z,36.65
2023-01-19T20:49:56.436Z,34.85
2023-01-19T20:51:59.268Z,34.10
2023-01-19T20:54:02.369Z,36.53
2023-01-19T20:56:08.418Z,35.08
2023-01-19T20:58:11.359Z,34.35
2023-01-19T21:00:15.007Z,36.38
2023-01-19T21:02:18.165Z,34.65
2023-01-19T21:04:21.143Z,35.90
2023-01-19T21:06:25.303Z,34.67
2023-01-19T21:08:28.160Z,39.20
2023-01-19T21:10:31.017Z,41.42
2023-01-19T21:12:35.524Z,37.75
2023-01-19T21:14:39.667Z,47.97
2023-01-19T21:16:42.987Z,54.13
2023-01-19T21:18:46.052Z,48.10
2023-01-19T21:20:49.359Z,37.45
2023-01-19T21:22:52.821Z,38.70
2023-01-19T21:24:55.729Z,35.22
2023-01-19T21:26:58.697Z,63.35
2023-01-19T21:29:03.857Z,83.53
2023-01-19T21:31:07.846Z,58.67
2023-01-19T21:33:11.276Z,48.70
2023-01-19T21:35:14.710Z,77.03
2023-01-19T21:37:17.717Z,67.07
2023-01-19T21:39:20.787Z,78.88
2023-01-19T21:41:23.938Z,63.42
2023-01-19T21:43:27.209Z,40.05
2023-01-19T21:45:31.615Z,33.03
2023-01-19T21:47:35.248Z,31.02
2023-01-19T21:49:38.232Z,30.50
2023-01-19T21:51:41.087Z,31.55
2023-01-19T21:53:43.917Z,33.35
2023-01-19T21:55:46.810Z,34.20
2023-01-19T21:57:52.091Z,35.58
2023-01-19T21:59:55.048Z,37.53
2023-01-19T22:01:59.563Z,40.28
2023-01-19T22:04:02.660Z,40.33
2023-01-19T22:06:06.283Z,40.83
2023-01-19T22:08:09.908Z,41.65
2023-01-19T22:10:12.727Z,41.97
2023-01-19T22:12:15.567Z,40.63
2023-01-19T22:14:18.515Z,40.17
2023-01-19T22:16:22.940Z,37.78
2023-01-19T22:18:27.369Z,38.47
2023-01-19T22:20:30.326Z,34.90
2023-01-19T22:22:33.567Z,33.13
2023-01-19T22:24:36.649Z,32.70
2023-01-19T22:26:39.653Z,34.10
2023-01-19T22:28:42.648Z,32.60
2023-01-19T22:30:45.982Z,33.08
2023-01-19T22:32:48.987Z,32.17
2023-01-19T22:34:53.270Z,31.33
2023-01-19T22:36:56.317Z,33.63
2023-01-19T22:39:00.918Z,33.05
2023-01-19T22:41:12.567Z,33.20
2023-01-19T22:43:15.448Z,33.85
2023-01-19T22:45:18.377Z,32.72
2023-01-19T22:47:21.248Z,37.25
2023-01-19T22:49:24.290Z,35.88
2023-01-19T22:51:29.804Z,37.83
2023-01-19T22:55:35.318Z,41.80
2023-01-19T22:57:38.657Z,41.35
2023-01-19T22:59:43.887Z,36.42
2023-01-19T23:01:47.612Z,32.50
2023-01-19T23:03:50.847Z,31.23
2023-01-19T23:05:53.896Z,32.13
2023-01-19T23:07:58.290Z,31.25
2023-01-19T23:10:01.187Z,30.10
2023-01-19T23:12:04.428Z,29.50
2023-01-19T23:14:09.877Z,31.08
2023-01-19T23:16:13.658Z,30.73
2023-01-19T23:18:16.557Z,31.83
2023-01-19T23:20:19.761Z,31.90
2023-01-19T23:22:22.889Z,30.13
2023-01-19T23:24:27.376Z,31.75
2023-01-19T23:26:31.133Z,31.73
2023-01-19T23:28:39.886Z,31.58
2023-01-19T23:30:42.927Z,32.97
2023-01-19T23:32:49.902Z,36.10
2023-01-19T23:34:53.108Z,44.30
2023-01-19T23:36:56.111Z,43.28
2023-01-19T23:39:00.709Z,41.00
2023-01-19T23:41:05.456Z,36.83
2023-01-19T23:43:08.341Z,34.33
2023-01-19T23:45:11.863Z,38.47
2023-01-19T23:47:15.050Z,33.63
2023-01-19T23:49:18.446Z,31.77
2023-01-19T23:51:22.968Z,30.52
2023-01-19T23:53:25.877Z,29.58
2023-01-19T23:55:28.942Z,30.20
2023-01-19T23:57:33.273Z,28.50
2023-01-19T23:59:36.128Z,30.50
